Time;durP1;ratioP1;P1;durP2;ratioP2;P2;SDS_P1;SDS_P2;PMS_P1;PMS_P2;Temp;Humidity;BMP_temperature;BMP_pressure;BME280_temperature;BME280_humidity;BME280_pressure;Samples;Min_cycle;Max_cycle;Signal;HPM_P1;HPM_P2
2022/01/31 00:01:08;;;;;;;29.45;5.63;;;;;;;-144.19;100.00;77809.66;6130269;23;20739;-89
2022/01/31 00:03:34;;;;;;;25.65;5.05;;;;;;;-144.19;100.00;77774.22;6156346;23;20018;-91
2022/01/31 00:06:02;;;;;;;25.10;6.07;;;;;;;-144.19;100.00;77721.06;6130474;23;20021;-89
2022/01/31 00:08:29;;;;;;;25.92;5.43;;;;;;;-144.19;100.00;77764.38;6130471;23;20092;-90
2022/01/31 00:10:57;;;;;;;24.63;6.13;;;;;;;-144.19;100.00;77756.50;6130692;23;20025;-90
2022/01/31 00:13:35;;;;;;;26.75;6.57;;;;;;;-144.19;100.00;77748.63;6129903;23;20484;-89
2022/01/31 00:16:02;;;;;;;35.75;5.60;;;;;;;-144.19;100.00;77730.91;6130392;23;20053;-89
2022/01/31 01:04:18;;;;;;;24.35;6.53;;;;;;;-144.19;100.00;77658.06;6155137;23;20032;-85
2022/01/31 01:06:45;;;;;;;25.15;7.75;;;;;;;-144.19;100.00;77634.44;6129547;23;20034;-83
2022/01/31 01:09:11;;;;;;;18.47;5.57;;;;;;;-144.19;100.00;77616.72;6127853;23;20463;-82
2022/01/31 01:11:37;;;;;;;19.37;5.67;;;;;;;-144.19;100.00;77614.75;6128521;23;20101;-83
2022/01/31 01:14:04;;;;;;;18.25;6.43;;;;;;;-144.19;100.00;77608.84;6128080;23;20241;-84
2022/01/31 01:29:52;;;;;;;25.70;8.35;;;;;;;-144.19;100.00;77520.22;6155484;23;20097;-84
2022/01/31 01:32:18;;;;;;;24.40;7.35;;;;;;;-144.19;100.00;77514.31;6130066;23;20293;-83
2022/01/31 01:34:45;;;;;;;21.27;7.57;;;;;;;-144.19;100.00;77492.66;6154936;23;20027;-83
2022/01/31 01:37:13;;;;;;;27.58;8.43;;;;;;;-144.19;100.00;77476.91;6156336;23;20022;-86
2022/01/31 01:39:41;;;;;;;27.17;9.05;;;;;;;-144.19;100.00;77478.88;6155698;23;20028;-84
2022/01/31 01:42:08;;;;;;;24.50;7.03;;;;;;;-144.19;100.00;77453.28;6156715;23;20032;-84
2022/01/31 01:44:50;;;;;;;30.55;8.18;;;;;;;-144.19;100.00;77457.22;6130460;23;20028;-86
2022/01/31 01:47:18;;;;;;;27.67;8.63;;;;;;;-144.19;100.00;77437.53;6155253;23;20031;-86
2022/01/31 01:49:46;;;;;;;21.95;7.90;;;;;;;-144.19;100.00;77423.75;6130355;23;20022;-86
2022/01/31 01:52:13;;;;;;;;;;;;;;;-144.19;100.00;77406.03;6156526;23;20026;-86
2022/01/31 01:54:39;;;;;;;25.23;7.57;;;;;;;-144.19;100.00;77390.28;6156883;23;19917;-86
2022/01/31 01:57:06;;;;;;;22.30;8.02;;;;;;;-144.19;100.00;77368.63;6155806;23;20017;-86
2022/01/31 01:59:35;;;;;;;23.23;7.15;;;;;;;-144.19;100.00;77360.75;6155619;23;20028;-86
2022/01/31 02:02:03;;;;;;;18.38;7.57;;;;;;;-144.19;100.00;77354.84;6155352;23;20031;-82
2022/01/31 02:04:29;;;;;;;21.33;6.53;;;;;;;-144.19;100.00;77343.03;6158337;23;20069;-84
2022/01/31 02:06:56;;;;;;;18.48;7.15;;;;;;;-144.19;100.00;77343.03;6162169;23;20100;-83
2022/01/31 02:09:25;;;;;;;29.70;8.50;;;;;;;-144.19;100.00;77327.28;6154012;23;20028;-82
2022/01/31 02:11:54;;;;;;;18.90;6.57;;;;;;;-144.19;100.00;77327.28;6128147;23;20029;-83
2022/01/31 02:14:22;;;;;;;17.60;8.18;;;;;;;-144.19;100.00;77323.34;6128967;23;20033;-83
2022/01/31 02:16:49;;;;;;;;;;;;;;;-144.19;100.00;77315.47;6128074;23;20036;-84
2022/01/31 02:19:21;;;;;;;19.48;7.57;;;;;;;-144.19;100.00;77297.75;6127177;23;20093;-83
2022/01/31 02:21:50;;;;;;;17.95;6.53;;;;;;;-144.19;100.00;77307.59;6152963;23;20488;-82
2022/01/31 02:24:17;;;;;;;21.83;7.75;;;;;;;-144.19;100.00;77303.66;6126728;23;20293;-83
2022/01/31 02:26:43;;;;;;;15.48;6.85;;;;;;;-144.19;100.00;77303.66;6153067;23;20358;-83
2022/01/31 02:29:12;;;;;;;22.07;8.97;;;;;;;-144.19;100.00;77311.53;6153292;23;20028;-83
2022/01/31 02:31:46;;;;;;;21.83;8.15;;;;;;;-144.19;100.00;77274.13;6127486;23;20021;-84
2022/01/31 02:34:14;;;;;;;21.77;7.57;;;;;;;-144.19;100.00;77283.97;6152806;23;20025;-84
2022/01/31 02:36:40;;;;;;;23.48;8.60;;;;;;;-144.19;100.00;77280.03;6153176;23;20028;-84
2022/01/31 02:39:08;;;;;;;22.10;7.50;;;;;;;-144.19;100.00;77276.09;6127454;23;20415;-83
2022/01/31 02:41:44;;;;;;;;;;;;;;;-144.19;100.00;77264.28;6153884;23;20026;-83
2022/01/31 02:44:16;;;;;;;26.40;10.57;;;;;;;-144.19;100.00;77248.53;6152972;23;19922;-84
2022/01/31 02:46:49;;;;;;;21.02;8.07;;;;;;;-144.19;100.00;77250.50;6126644;23;20022;-84
2022/01/31 02:49:18;;;;;;;35.30;11.75;;;;;;;-144.19;100.00;77248.53;6127028;23;20451;-83
2022/01/31 02:51:49;;;;;;;26.73;11.25;;;;;;;-144.19;100.00;77283.97;6153624;23;20026;-85
2022/01/31 02:54:15;;;;;;;26.48;9.93;;;;;;;-144.19;100.00;77248.53;6154239;23;20022;-85
2022/01/31 02:56:42;;;;;;;32.65;9.85;;;;;;;-144.19;100.00;77299.72;6137890;23;20036;-86
2022/01/31 02:59:08;;;;;;;34.50;14.05;;;;;;;-144.19;100.00;77299.72;6160712;23;20018;-85
2022/01/31 03:01:36;;;;;;;26.17;8.97;;;;;;;-144.19;100.00;77348.94;6159643;23;20025;-84
2022/01/31 03:04:03;;;;;;;26.63;12.18;;;;;;;-144.19;100.00;77321.38;6138786;23;20025;-84
2022/01/31 03:06:30;;;;;;;26.70;10.50;;;;;;;-144.19;100.00;77335.16;6162810;23;20056;-85
2022/01/31 03:08:56;;;;;;;27.83;12.73;;;;;;;-144.19;100.00;77315.47;6137458;23;20014;-85
2022/01/31 03:11:23;;;;;;;22.92;9.38;;;;;;;-144.19;100.00;77321.38;6137047;23;20031;-84
2022/01/31 03:13:49;;;;;;;25.17;11.50;;;;;;;-144.19;100.00;77309.56;6136037;23;20076;-85
2022/01/31 03:16:16;;;;;;;19.10;8.00;;;;;;;-144.19;100.00;77331.22;6158916;23;20021;-82
2022/01/31 03:18:42;;;;;;;24.23;9.27;;;;;;;-144.19;100.00;77327.28;6131133;23;20025;-82
2022/01/31 03:21:08;;;;;;;26.30;10.20;;;;;;;-144.19;100.00;77331.22;6157269;23;20069;-85
2022/01/31 03:23:35;;;;;;;24.42;12.00;;;;;;;-144.19;100.00;77303.66;6131346;23;20249;-84
2022/01/31 03:26:01;;;;;;;27.25;11.77;;;;;;;-144.19;100.00;77283.97;6132946;23;20028;-82
2022/01/31 03:28:28;;;;;;;24.03;12.03;;;;;;;-144.19;100.00;77301.69;6139082;23;20308;-85
2022/01/31 03:30:56;;;;;;;27.33;11.10;;;;;;;-144.19;100.00;77299.72;6156746;23;20256;-83
2022/01/31 03:33:22;;;;;;;23.65;9.88;;;;;;;-144.19;100.00;77301.69;6155715;23;20021;-83
2022/01/31 03:35:48;;;;;;;25.53;11.43;;;;;;;-144.19;100.00;77323.34;6156743;23;20032;-84
2022/01/31 03:38:15;;;;;;;19.98;9.98;;;;;;;-144.19;100.00;77307.59;6157034;23;20241;-85
2022/01/31 03:40:41;;;;;;;19.87;11.33;;;;;;;-144.19;100.00;77315.47;6156457;23;20496;-84
2022/01/31 03:43:07;;;;;;;18.33;9.60;;;;;;;-144.19;100.00;77297.75;6155038;23;20025;-85
2022/01/31 03:45:34;;;;;;;27.73;11.07;;;;;;;-144.19;100.00;77305.63;6156419;23;20251;-84
2022/01/31 03:48:05;;;;;;;20.05;10.07;;;;;;;-144.19;100.00;77327.28;6155028;23;20060;-84
2022/01/31 03:50:31;;;;;;;25.88;13.48;;;;;;;-144.19;100.00;77313.50;6154993;23;20025;-83
2022/01/31 03:52:58;;;;;;;19.77;10.02;;;;;;;-144.19;100.00;77297.75;6154766;23;20048;-84
2022/01/31 03:55:24;;;;;;;20.30;11.10;;;;;;;-144.19;100.00;77291.84;6157109;23;20069;-86
2022/01/31 03:57:50;;;;;;;19.40;10.68;;;;;;;-144.19;100.00;77299.72;6155247;23;20323;-86
2022/01/31 04:00:18;;;;;;;22.05;11.10;;;;;;;-144.19;100.00;77295.78;6155575;23;20033;-82
2022/01/31 04:02:45;;;;;;;22.85;12.05;;;;;;;-144.19;100.00;77311.53;6152703;23;20021;-84
2022/01/31 04:05:11;;;;;;;32.60;15.75;;;;;;;-144.19;100.00;77311.53;6153221;23;20060;-83
2022/01/31 04:07:39;;;;;;;17.73;10.82;;;;;;;-144.19;100.00;77319.41;6154420;23;20362;-84
2022/01/31 04:10:06;;;;;;;19.77;8.77;;;;;;;-144.19;100.00;77309.56;6153710;23;20466;-84
2022/01/31 04:12:33;;;;;;;19.02;11.02;;;;;;;-144.19;100.00;77297.75;6153858;23;20025;-84
2022/01/31 04:14:59;;;;;;;15.95;10.30;;;;;;;-144.19;100.00;77272.16;6154537;23;20022;-81
2022/01/31 04:17:26;;;;;;;18.80;11.75;;;;;;;-144.19;100.00;77272.16;6153096;23;20338;-83
2022/01/31 04:19:52;;;;;;;22.15;12.30;;;;;;;-144.19;100.00;77272.16;6152986;23;20022;-83
2022/01/31 04:22:20;;;;;;;15.68;10.98;;;;;;;-144.19;100.00;77260.34;6153395;23;20028;-83
2022/01/31 04:24:53;;;;;;;15.35;9.57;;;;;;;-144.19;100.00;77264.28;6152579;23;20068;-85
2022/01/31 04:27:19;;;;;;;17.80;12.13;;;;;;;-144.19;100.00;77268.22;6152924;23;20032;-82
2022/01/31 04:29:48;;;;;;;20.60;11.23;;;;;;;-144.19;100.00;77248.53;6153824;23;20028;-82
2022/01/31 04:32:15;;;;;;;15.68;10.65;;;;;;;-144.19;100.00;77244.59;6155072;23;20236;-82
2022/01/31 04:34:41;;;;;;;26.83;15.20;;;;;;;-144.19;100.00;77232.78;6141784;23;20029;-84
2022/01/31 04:37:10;;;;;;;20.60;13.63;;;;;;;-144.19;100.00;77203.25;6156536;23;20025;-85
2022/01/31 04:39:37;;;;;;;21.10;12.75;;;;;;;-144.19;100.00;77191.44;6130138;23;20021;-84
2022/01/31 04:42:04;;;;;;;19.50;12.90;;;;;;;-144.19;100.00;77201.28;6155804;23;20434;-83
2022/01/31 04:44:31;;;;;;;19.13;12.57;;;;;;;-144.19;100.00;77183.56;6155687;23;20077;-84
2022/01/31 04:46:58;;;;;;;23.55;13.63;;;;;;;-144.19;100.00;77169.78;6156579;23;20361;-84
2022/01/31 04:49:24;;;;;;;14.30;11.05;;;;;;;-144.19;100.00;77161.91;6131098;23;20022;-84
2022/01/31 04:51:51;;;;;;;19.17;11.75;;;;;;;-144.19;100.00;77154.03;6130677;23;20025;-84
2022/01/31 04:54:18;;;;;;;17.17;11.85;;;;;;;-144.19;100.00;77138.28;6130238;23;20494;-83
2022/01/31 04:56:46;;;;;;;20.33;14.07;;;;;;;-144.19;100.00;77138.28;6156459;23;20411;-83
2022/01/31 04:59:13;;;;;;;14.20;10.40;;;;;;;-144.19;100.00;77116.63;6128865;23;20018;-82
2022/01/31 05:01:42;;;;;;;15.40;11.18;;;;;;;-144.19;100.00;77108.75;6153762;23;20025;-82
2022/01/31 05:04:08;;;;;;;16.92;11.20;;;;;;;-144.19;100.00;77098.91;6127712;23;20036;-82
2022/01/31 05:06:38;;;;;;;13.35;9.57;;;;;;;-144.19;100.00;77071.34;6127986;23;20096;-83
2022/01/31 05:09:05;;;;;;;12.82;9.18;;;;;;;-144.19;100.00;77051.66;6127602;23;20018;-82
2022/01/31 05:11:31;;;;;;;14.35;9.73;;;;;;;-144.19;100.00;77035.91;6153567;23;20021;-82
2022/01/31 05:13:58;;;;;;;13.15;9.75;;;;;;;-144.19;100.00;77031.97;6153433;23;20036;-83
2022/01/31 05:16:24;;;;;;;14.63;8.53;;;;;;;-144.19;100.00;77033.94;6153407;23;20022;-83
2022/01/31 05:18:51;;;;;;;13.02;8.45;;;;;;;-144.19;100.00;77006.38;6127523;23;20245;-83
2022/01/31 05:21:18;;;;;;;13.83;9.27;;;;;;;-144.19;100.00;76996.53;6127962;23;20022;-81
2022/01/31 05:23:46;;;;;;;10.65;8.05;;;;;;;-144.19;100.00;76988.66;6153950;23;20029;-83
2022/01/31 05:26:13;;;;;;;13.40;8.13;;;;;;;-144.19;100.00;76988.66;6128614;23;20021;-82
2022/01/31 05:28:40;;;;;;;13.57;8.32;;;;;;;-144.19;100.00;76976.84;6152676;23;20028;-82
2022/01/31 05:31:07;;;;;;;12.40;7.22;;;;;;;-144.19;100.00;76972.94;6153035;23;20036;-83
2022/01/31 05:33:34;;;;;;;10.85;7.03;;;;;;;-144.19;100.00;76961.13;6153790;23;20022;-83
2022/01/31 05:36:00;;;;;;;9.37;6.00;;;;;;;-144.19;100.00;76961.13;6127241;23;20477;-84
2022/01/31 05:38:27;;;;;;;11.70;7.83;;;;;;;-144.19;100.00;76925.69;6128412;23;20612;-83
2022/01/31 05:40:53;;;;;;;10.77;6.65;;;;;;;-144.19;100.00;76921.75;6127408;23;20771;-81
2022/01/31 05:43:20;;;;;;;10.77;7.50;;;;;;;-144.19;100.00;76925.69;6127685;23;20367;-82
2022/01/31 05:45:47;;;;;;;12.20;7.13;;;;;;;-144.19;100.00;76906.00;6127070;23;20033;-82
2022/01/31 05:48:13;;;;;;;10.40;6.77;;;;;;;-144.19;100.00;76907.97;6126617;23;20353;-83
2022/01/31 05:50:40;;;;;;;11.07;6.10;;;;;;;-144.19;100.00;76913.88;6127082;23;20028;-81
2022/01/31 05:53:06;;;;;;;9.68;6.22;;;;;;;-144.19;100.00;76888.28;6132398;23;20022;-82
2022/01/31 05:55:33;;;;;;;8.80;6.00;;;;;;;-144.19;100.00;76874.50;6157126;23;20021;-81
2022/01/31 05:57:59;;;;;;;10.07;6.07;;;;;;;-144.19;100.00;76854.81;6154752;23;20018;-84
2022/01/31 06:00:25;;;;;;;10.15;6.13;;;;;;;-144.19;100.00;76866.63;6154849;23;20022;-82
2022/01/31 06:02:58;;;;;;;12.30;6.60;;;;;;;-144.19;100.00;76850.88;6152761;23;20357;-83
2022/01/31 06:05:26;;;;;;;10.77;6.43;;;;;;;-144.19;100.00;76868.59;6153578;23;20241;-83
2022/01/31 06:07:52;;;;;;;13.85;6.63;;;;;;;-144.19;100.00;76843.00;6153597;23;20427;-84
2022/01/31 06:10:22;;;;;;;13.47;6.33;;;;;;;-144.19;100.00;76839.06;6127010;23;20029;-82
2022/01/31 06:12:51;;;;;;;11.70;6.13;;;;;;;-144.19;100.00;76827.25;6140854;23;20249;-84
2022/01/31 06:15:18;;;;;;;11.25;5.95;;;;;;;-144.19;100.00;76819.38;6155565;23;20021;-84
2022/01/31 06:17:44;;;;;;;10.85;6.13;;;;;;;-144.19;100.00;76809.53;6157788;23;20053;-85
2022/01/31 06:20:11;;;;;;;10.40;5.73;;;;;;;-144.19;100.00;76799.69;6156105;23;20049;-85
2022/01/31 06:22:45;;;;;;;12.23;6.30;;;;;;;-144.19;100.00;76791.81;6158427;23;20245;-87
2022/01/31 06:25:12;;;;;;;9.85;5.32;;;;;;;-144.19;100.00;76795.75;6157193;23;20025;-85
2022/01/31 06:27:39;;;;;;;11.13;6.18;;;;;;;-144.19;100.00;76772.13;6130629;23;20049;-84
2022/01/31 06:30:08;;;;;;;14.35;5.28;;;;;;;-144.19;100.00;76758.34;6155665;23;20117;-84
2022/01/31 06:32:34;;;;;;;11.60;5.32;;;;;;;-144.19;100.00;76764.25;6129718;23;20028;-84
2022/01/31 06:35:01;;;;;;;11.20;4.93;;;;;;;-144.19;100.00;76748.50;6130343;23;20026;-81
2022/01/31 06:37:27;;;;;;;14.45;4.95;;;;;;;-144.19;100.00;76752.44;6156091;23;20028;-84
2022/01/31 06:39:53;;;;;;;15.73;4.88;;;;;;;-144.19;100.00;76748.50;6156511;23;20024;-83
2022/01/31 06:42:20;;;;;;;14.07;4.60;;;;;;;-144.19;100.00;76748.50;6156134;23;20025;-83
2022/01/31 06:44:47;;;;;;;14.02;4.38;;;;;;;-144.19;100.00;76728.81;6130602;23;20026;-82
2022/01/31 06:47:13;;;;;;;10.70;4.00;;;;;;;-144.19;100.00;76732.75;6156654;23;20026;-85
2022/01/31 06:49:40;;;;;;;15.53;4.23;;;;;;;-144.19;100.00;76734.72;6129759;23;20026;-84
2022/01/31 06:52:06;;;;;;;11.63;3.50;;;;;;;-144.19;100.00;76740.63;6129358;23;20249;-84
2022/01/31 06:54:32;;;;;;;11.87;3.50;;;;;;;-144.19;100.00;76724.88;6155500;23;20470;-84
2022/01/31 06:57:00;;;;;;;12.50;4.13;;;;;;;-144.19;100.00;76705.19;6129024;23;20259;-83
2022/01/31 06:59:27;;;;;;;12.43;3.45;;;;;;;-144.19;100.00;76701.25;6156037;23;20250;-85
2022/01/31 07:01:59;;;;;;;12.55;2.90;;;;;;;-144.19;100.00;76699.28;6130540;23;20029;-83
2022/01/31 07:04:26;;;;;;;12.50;4.00;;;;;;;-144.19;100.00;76685.53;6130012;23;20022;-83
2022/01/31 07:06:53;;;;;;;;;;;;;;;-144.19;100.00;76685.53;6156798;23;20053;-85
2022/01/31 07:09:21;;;;;;;13.65;3.65;;;;;;;-144.19;100.00;76677.66;6155575;23;20130;-85
2022/01/31 07:11:50;;;;;;;11.18;3.00;;;;;;;-144.19;100.00;76677.66;6130783;23;20487;-83
2022/01/31 07:14:32;;;;;;;17.42;3.58;;;;;;;-144.19;100.00;76669.78;6154697;23;20025;-83
2022/01/31 07:17:00;;;;;;;15.35;3.42;;;;;;;-144.19;100.00;76673.72;6155766;23;20450;-82
2022/01/31 07:19:30;;;;;;;11.77;3.58;;;;;;;-144.19;100.00;76673.72;6130776;23;20354;-84
2022/01/31 07:21:57;;;;;;;11.50;3.67;;;;;;;-144.19;100.00;76665.84;6130114;23;20051;-85
2022/01/31 07:24:30;;;;;;;12.20;1.97;;;;;;;-144.19;100.00;76677.66;6155007;23;20026;-83
2022/01/31 07:26:58;;;;;;;7.53;2.15;;;;;;;-144.19;100.00;76693.38;6129752;23;20325;-82
2022/01/31 07:29:25;;;;;;;9.70;1.88;;;;;;;-144.19;100.00;76699.28;6148863;23;20474;-84
2022/01/31 07:31:56;;;;;;;7.40;1.73;;;;;;;-144.19;100.00;76689.44;6155339;23;20057;-86
2022/01/31 07:34:22;;;;;;;;;;;;;;;-144.19;100.00;76705.19;6155230;23;20613;-84
2022/01/31 07:36:49;;;;;;;2.45;0.95;;;;;;;-144.19;100.00;76713.06;6156903;23;19946;-83
2022/01/31 07:39:16;;;;;;;3.47;0.90;;;;;;;-144.19;100.00;76720.94;6156925;23;20040;-85
2022/01/31 07:41:43;;;;;;;5.15;0.90;;;;;;;-144.19;100.00;76728.81;6156898;23;20478;-84
2022/01/31 07:44:10;;;;;;;2.78;0.73;;;;;;;-144.19;100.00;76750.47;6157372;23;20120;-85
2022/01/31 07:46:37;;;;;;;3.30;0.82;;;;;;;-144.19;100.00;76764.25;6158596;23;20483;-84
2022/01/31 07:49:04;;;;;;;;;;;;;;;-144.19;100.00;76768.19;6163483;23;20022;-84
2022/01/31 07:51:31;;;;;;;3.85;0.80;;;;;;;-144.19;100.00;76783.94;6160937;23;19923;-85
2022/01/31 07:53:58;;;;;;;3.05;0.90;;;;;;;-144.19;100.00;76764.25;6158614;23;20113;-84
2022/01/31 07:56:25;;;;;;;4.40;0.80;;;;;;;-144.19;100.00;76781.97;6158458;23;20051;-84
2022/01/31 07:58:51;;;;;;;;;;;;;;;-144.19;100.00;76787.88;6159063;23;20247;-84
2022/01/31 08:01:18;;;;;;;3.20;0.82;;;;;;;-144.19;100.00;76776.06;6157146;23;19916;-84
2022/01/31 08:03:47;;;;;;;4.88;0.90;;;;;;;-144.19;100.00;76783.94;6158180;23;20021;-85
2022/01/31 08:06:14;;;;;;;6.90;0.93;;;;;;;-144.19;100.00;76756.38;6159348;23;20018;-83
2022/01/31 08:08:41;;;;;;;4.32;1.08;;;;;;;-144.19;100.00;76772.13;6158569;23;20018;-84
2022/01/31 08:11:08;;;;;;;6.43;1.33;;;;;;;-144.19;100.00;76780.00;6158716;23;20018;-89
2022/01/31 08:13:35;;;;;;;6.45;1.58;;;;;;;-144.19;100.00;76772.13;6158250;23;20036;-88
2022/01/31 08:18:43;;;;;;;5.88;2.08;;;;;;;-144.19;100.00;76744.56;6161275;23;20056;-84
2022/01/31 08:21:13;;;;;;;5.05;2.08;;;;;;;-144.19;100.00;76766.22;6160761;23;20026;-83
2022/01/31 08:23:40;;;;;;;11.90;3.00;;;;;;;-144.19;100.00;76752.44;6160922;23;20125;-85
2022/01/31 08:26:08;;;;;;;;;;;;;;;-144.19;100.00;76764.25;6161187;23;20025;-85
2022/01/31 08:28:39;;;;;;;10.23;3.65;;;;;;;-144.19;100.00;76750.47;6157909;23;19923;-84
2022/01/31 08:31:19;;;;;;;5.10;2.20;;;;;;;-144.19;100.00;76722.91;6159255;23;20032;-85
2022/01/31 08:34:03;;;;;;;5.43;2.10;;;;;;;-144.19;100.00;76726.84;6159476;23;20021;-83
2022/01/31 08:36:34;;;;;;;6.18;2.05;;;;;;;-144.19;100.00;76724.88;6160608;23;20474;-83
2022/01/31 08:39:08;;;;;;;4.88;2.20;;;;;;;-144.19;100.00;76720.94;6159199;23;20354;-84
2022/01/31 08:41:37;;;;;;;5.93;2.42;;;;;;;-144.19;100.00;76717.00;6158480;23;20025;-84
2022/01/31 08:44:04;;;;;;;4.97;2.50;;;;;;;-144.19;100.00;76711.09;6155081;23;20061;-85
2022/01/31 08:46:33;;;;;;;6.40;2.25;;;;;;;-144.19;100.00;76709.13;6152862;23;20053;-83
2022/01/31 08:48:59;;;;;;;10.80;3.08;;;;;;;-144.19;100.00;76715.03;6153078;23;20022;-85
2022/01/31 08:51:26;;;;;;;7.33;2.90;;;;;;;-144.19;100.00;76679.59;6153985;23;20480;-84
2022/01/31 08:53:53;;;;;;;5.00;2.20;;;;;;;-144.19;100.00;76677.66;6150692;23;20030;-83
2022/01/31 08:56:19;;;;;;;8.32;2.83;;;;;;;-144.19;100.00;76671.75;6153382;23;20026;-84
2022/01/31 08:58:48;;;;;;;8.45;3.13;;;;;;;-144.19;100.00;76661.91;6152638;23;20027;-84
2022/01/31 09:01:18;;;;;;;6.60;2.42;;;;;;;-144.19;100.00;76659.94;6152925;23;20347;-82
2022/01/31 09:06:24;;;;;;;8.25;2.75;;;;;;;-144.19;100.00;76650.09;6153218;23;20040;-85
2022/01/31 09:08:52;;;;;;;8.50;2.92;;;;;;;-144.19;100.00;76667.81;6151357;23;20021;-84
2022/01/31 09:11:18;;;;;;;6.75;1.83;;;;;;;-144.19;100.00;76650.09;6151783;23;20466;-84
2022/01/31 09:13:45;;;;;;;5.40;2.90;;;;;;;-144.19;100.00;76634.34;6152279;23;20021;-85
2022/01/31 09:16:12;;;;;;;6.32;1.27;;;;;;;-144.19;100.00;76657.97;6151406;23;20376;-83
2022/01/31 09:18:39;;;;;;;;;;;;;;;-144.19;100.00;76659.94;6151395;23;20025;-84
2022/01/31 09:21:05;;;;;;;4.20;0.80;;;;;;;-144.19;100.00;76657.97;6149357;23;19947;-83
2022/01/31 09:23:32;;;;;;;0.95;0.50;;;;;;;-144.19;100.00;76661.91;6150505;23;20023;-84
2022/01/31 09:25:58;;;;;;;1.30;0.40;;;;;;;-144.19;100.00;76642.22;6151183;23;20022;-84
2022/01/31 09:28:26;;;;;;;3.30;1.30;;;;;;;-144.19;100.00;76654.03;6153524;23;20061;-85
2022/01/31 09:30:54;;;;;;;4.32;1.67;;;;;;;-144.19;100.00;76618.59;6152699;23;20018;-85
2022/01/31 09:33:23;;;;;;;10.13;2.38;;;;;;;-144.19;100.00;76638.28;6151033;23;20025;-85
2022/01/31 09:35:49;;;;;;;5.47;1.70;;;;;;;-144.19;100.00;76622.53;6153039;23;20026;-86
2022/01/31 09:38:18;;;;;;;3.13;1.40;;;;;;;-144.19;100.00;76640.25;6150845;23;20022;-85
2022/01/31 09:40:44;;;;;;;2.70;1.30;;;;;;;-144.19;100.00;76661.91;6153370;23;20021;-89
2022/01/31 09:46:31;;;;;;;2.75;1.15;;;;;;;-144.19;100.00;76650.09;6153462;23;20026;-85
2022/01/31 09:48:54;;;;;;;5.00;1.30;;;;;;;-144.19;100.00;76661.91;6154098;23;20027;-85
2022/01/31 09:51:23;;;;;;;3.95;1.40;;;;;;;-144.19;100.00;76657.97;6156113;23;20025;-86
2022/01/31 09:54:01;;;;;;;4.32;1.48;;;;;;;-144.19;100.00;76650.09;6153980;23;20097;-83
2022/01/31 09:56:32;;;;;;;2.47;1.17;;;;;;;-144.19;100.00;76661.91;6152965;23;20044;-83
2022/01/31 09:59:00;;;;;;;3.95;1.20;;;;;;;-144.19;100.00;76638.28;6150866;23;20021;-82
2022/01/31 10:01:28;;;;;;;4.25;1.10;;;;;;;-144.19;100.00;76665.84;6149314;23;20029;-82
2022/01/31 10:04:00;;;;;;;6.57;1.52;;;;;;;-144.19;100.00;76657.97;6152515;23;20022;-83
2022/01/31 10:06:34;;;;;;;2.22;1.13;;;;;;;-144.19;100.00;76646.16;6151355;23;20029;-81
2022/01/31 10:09:07;;;;;;;3.03;1.20;;;;;;;-144.19;100.00;76640.25;6152306;23;20366;-83
2022/01/31 10:11:42;;;;;;;2.97;1.75;;;;;;;-144.19;100.00;76602.84;6151519;23;20053;-82
2022/01/31 10:17:02;;;;;;;4.25;1.63;;;;;;;-144.19;100.00;76622.53;6152014;23;20022;-83
2022/01/31 10:19:48;;;;;;;2.75;1.20;;;;;;;-144.19;100.00;76630.41;6150799;23;20025;-82
2022/01/31 10:22:16;;;;;;;3.45;1.30;;;;;;;-144.19;100.00;76636.31;6151570;23;20022;-84
2022/01/31 10:24:44;;;;;;;3.17;1.40;;;;;;;-144.19;100.00;76581.19;6151255;23;20057;-85
2022/01/31 10:27:14;;;;;;;5.55;2.38;;;;;;;-144.19;100.00;76602.84;6150181;23;20061;-85
2022/01/31 10:29:44;;;;;;;3.55;1.42;;;;;;;-144.19;100.00;76606.78;6149431;23;20033;-83
2022/01/31 10:32:24;;;;;;;3.33;1.17;;;;;;;-144.19;100.00;76646.16;6149729;23;20021;-82
2022/01/31 10:34:57;;;;;;;4.10;1.70;;;;;;;-144.19;100.00;76634.34;6151336;23;20039;-83
2022/01/31 10:37:25;;;;;;;4.40;1.48;;;;;;;-144.19;100.00;76650.09;6150456;23;20052;-82
2022/01/31 10:45:38;;;;;;;3.72;1.60;;;;;;;-144.19;100.00;76646.16;6152275;23;20035;-84
2022/01/31 10:51:58;;;;;;;5.38;1.67;;;;;;;-144.19;100.00;76642.22;6150955;23;20022;-83
2022/01/31 10:57:00;;;;;;;2.80;1.20;;;;;;;-144.19;100.00;76677.66;6151404;23;20039;-84
2022/01/31 10:59:36;;;;;;;2.30;1.58;;;;;;;-144.19;100.00;76634.34;6151544;23;20051;-84
2022/01/31 11:02:08;;;;;;;3.38;1.27;;;;;;;-144.19;100.00;76620.56;6149836;23;20032;-81
2022/01/31 11:04:38;;;;;;;4.97;1.95;;;;;;;-144.19;100.00;76594.97;6150901;23;20092;-83
2022/01/31 11:07:14;;;;;;;4.63;1.90;;;;;;;-144.19;100.00;76492.63;6149741;23;20021;-83
2022/01/31 11:09:41;;;;;;;3.58;1.20;;;;;;;-144.19;100.00;76520.16;6151009;23;20028;-82
2022/01/31 11:12:09;;;;;;;3.53;1.25;;;;;;;-144.19;100.00;76518.19;6149794;23;20025;-83
2022/01/31 11:14:36;;;;;;;2.40;1.30;;;;;;;-144.19;100.00;76469.00;6151562;23;20101;-85
2022/01/31 11:17:10;;;;;;;3.13;0.95;;;;;;;-144.19;100.00;76516.22;6149738;23;20306;-84
2022/01/31 11:19:39;;;;;;;1.05;0.73;;;;;;;-144.19;100.00;76553.63;6151950;23;20405;-83
2022/01/31 11:22:14;;;;;;;2.03;1.10;;;;;;;-144.19;100.00;76535.91;6151072;23;20028;-83
2022/01/31 11:25:05;;;;;;;3.70;0.80;;;;;;;-144.19;100.00;76559.53;6152148;23;20033;-84
2022/01/31 11:27:32;;;;;;;1.08;0.80;;;;;;;-144.19;100.00;76553.63;6151404;23;20025;-82
2022/01/31 11:30:00;;;;;;;;;;;;;;;-144.19;100.00;76569.38;6127684;23;20024;-81
2022/01/31 11:32:27;;;;;;;2.53;1.00;;;;;;;-144.19;100.00;76606.78;6127533;23;19927;-84
2022/01/31 11:34:55;;;;;;;3.88;1.20;;;;;;;-144.19;100.00;76618.59;6153697;23;20085;-82
2022/01/31 11:37:25;;;;;;;6.30;1.35;;;;;;;-144.19;100.00;76661.91;6127759;23;20029;-81
2022/01/31 11:39:55;;;;;;;2.00;1.00;;;;;;;-144.19;100.00;76626.47;6153505;23;20221;-82
2022/01/31 11:42:22;;;;;;;4.18;1.70;;;;;;;-144.19;100.00;76632.38;6127771;23;20026;-84
2022/01/31 11:45:18;;;;;;;3.15;1.30;;;;;;;-144.19;100.00;76642.22;6128589;23;20458;-82
2022/01/31 11:47:48;;;;;;;4.13;1.42;;;;;;;-144.19;100.00;76648.13;6158119;23;20021;-82
2022/01/31 11:50:17;;;;;;;3.85;1.60;;;;;;;-144.19;100.00;76630.41;6132209;23;20044;-82
2022/01/31 11:52:47;;;;;;;4.90;1.92;;;;;;;-144.19;100.00;76628.44;6128942;23;20045;-81
2022/01/31 11:55:17;;;;;;;4.90;1.60;;;;;;;-144.19;100.00;76642.22;6129360;23;20037;-81
2022/01/31 11:57:53;;;;;;;5.70;2.05;;;;;;;-144.19;100.00;76618.59;6154959;23;20028;-82
2022/01/31 12:00:24;;;;;;;4.07;2.17;;;;;;;-144.19;100.00;76616.63;6154876;23;20018;-81
2022/01/31 12:02:53;;;;;;;7.05;2.25;;;;;;;-144.19;100.00;76571.34;6153351;23;20029;-83
2022/01/31 12:05:25;;;;;;;3.10;1.95;;;;;;;-144.19;100.00;76492.63;6127219;23;20028;-81
2022/01/31 12:08:08;;;;;;;4.65;2.75;;;;;;;-144.19;100.00;76482.78;6127046;23;20022;-82
2022/01/31 12:10:43;;;;;;;2.45;1.60;;;;;;;-144.19;100.00;76522.13;6153168;23;20049;-82
2022/01/31 12:13:50;;;;;;;5.78;1.58;;;;;;;-144.19;100.00;76559.53;6153299;23;20076;-82
2022/01/31 12:16:45;;;;;;;4.15;1.70;;;;;;;-144.19;100.00;76512.28;6053020;23;20072;-82
2022/01/31 12:19:46;;;;;;;4.57;1.45;;;;;;;-144.19;100.00;76541.81;6127684;23;20096;-81
2022/01/31 12:22:44;;;;;;;5.10;2.45;;;;;;;-144.19;100.00;76539.84;6153321;23;20029;-83
2022/01/31 12:25:22;;;;;;;7.78;2.50;;;;;;;-144.19;100.00;76563.47;6124117;23;20022;-82
2022/01/31 12:27:49;;;;;;;4.28;1.70;;;;;;;-144.19;100.00;76543.78;6153696;23;20036;-83
2022/01/31 12:30:34;;;;;;;4.20;1.90;;;;;;;-144.19;100.00;76531.97;6153914;23;20018;-81
2022/01/31 12:33:00;;;;;;;4.68;1.75;;;;;;;-144.19;100.00;76537.88;6127902;23;20076;-83
2022/01/31 12:35:37;;;;;;;4.03;3.23;;;;;;;-144.19;100.00;76543.78;6153882;23;20022;-81
2022/01/31 12:38:06;;;;;;;4.25;1.50;;;;;;;-144.19;100.00;76555.59;6154461;23;20237;-84